createdAt,value
2022-12-17T00:00:25.965Z,141.47
2022-12-17T00:03:15.089Z,138.03
2022-12-17T00:06:02.999Z,133.53
2022-12-17T00:08:48.203Z,135.77
2022-12-17T00:11:33.376Z,138.33
2022-12-17T00:14:18.680Z,163.17
2022-12-17T00:17:04.355Z,153.70
2022-12-17T00:19:49.950Z,151.60
2022-12-17T00:22:35.429Z,133.00
2022-12-17T00:25:20.948Z,137.90
2022-12-17T00:28:13.243Z,194.53
2022-12-17T00:30:58.563Z,145.30
2022-12-17T00:33:44.059Z,154.30
2022-12-17T00:36:29.298Z,165.50
2022-12-17T00:39:14.831Z,193.03
2022-12-17T00:42:00.323Z,161.80
2022-12-17T00:44:45.541Z,197.00
2022-12-17T00:47:30.789Z,198.17
2022-12-17T00:50:16.551Z,192.40
2022-12-17T00:53:01.770Z,222.57
2022-12-17T00:55:46.901Z,207.47
2022-12-17T00:58:32.436Z,318.47
2022-12-17T01:01:17.839Z,258.60
2022-12-17T01:04:03.329Z,295.47
2022-12-17T01:06:49.034Z,199.53
2022-12-17T01:09:34.389Z,308.40
2022-12-17T01:12:19.647Z,158.13
2022-12-17T01:15:05.605Z,239.23
2022-12-17T01:17:50.831Z,181.17
2022-12-17T01:20:36.311Z,263.90
2022-12-17T01:23:21.845Z,191.97
2022-12-17T01:26:07.115Z,172.00
2022-12-17T01:28:52.261Z,171.20
2022-12-17T01:31:37.431Z,182.93
2022-12-17T01:34:23.115Z,187.73
2022-12-17T01:37:08.212Z,299.17
2022-12-17T01:39:53.461Z,243.83
2022-12-17T01:42:44.552Z,212.80
2022-12-17T01:45:38.301Z,229.60
2022-12-17T01:48:32.314Z,169.83
2022-12-17T01:51:18.712Z,237.50
2022-12-17T01:54:05.021Z,183.57
2022-12-17T01:56:50.811Z,150.80
2022-12-17T01:59:47.982Z,121.43
2022-12-17T02:02:33.195Z,129.57
2022-12-17T02:05:23.342Z,129.93
2022-12-17T02:08:08.620Z,126.07
2022-12-17T02:11:21.971Z,113.83
2022-12-17T02:14:38.042Z,115.60
2022-12-17T02:17:29.084Z,116.70
2022-12-17T02:20:21.864Z,133.20
2022-12-17T02:23:39.845Z,107.23
2022-12-17T02:26:40.149Z,114.57
2022-12-17T02:29:28.457Z,126.40
2022-12-17T02:32:15.369Z,104.67
2022-12-17T02:35:02.167Z,123.57
2022-12-17T02:37:48.651Z,107.63
2022-12-17T02:40:37.509Z,95.77
2022-12-17T02:43:25.362Z,98.63
2022-12-17T02:46:11.942Z,90.30
2022-12-17T02:48:57.221Z,89.87
2022-12-17T02:51:43.439Z,92.67
2022-12-17T02:54:33.004Z,83.67
2022-12-17T02:57:19.606Z,89.87
2022-12-17T03:00:05.855Z,100.57
2022-12-17T03:02:51.084Z,96.63
2022-12-17T03:05:44.872Z,98.33
2022-12-17T03:08:30.688Z,107.37
2022-12-17T03:11:16.022Z,143.20
2022-12-17T03:14:01.430Z,153.50
2022-12-17T03:16:47.134Z,199.13
2022-12-17T03:19:32.381Z,190.17
2022-12-17T03:22:17.578Z,383.27
2022-12-17T03:25:02.855Z,250.27
2022-12-17T03:27:48.130Z,160.80
2022-12-17T03:30:36.018Z,325.67
2022-12-17T03:33:22.325Z,251.90
2022-12-17T03:36:08.045Z,440.43
2022-12-17T03:38:53.246Z,453.10
2022-12-17T03:41:38.511Z,471.20
2022-12-17T03:44:23.719Z,483.53
2022-12-17T03:47:08.930Z,260.57
2022-12-17T03:49:54.018Z,351.87
2022-12-17T03:52:39.647Z,720.27
2022-12-17T03:55:24.940Z,395.93
2022-12-17T03:58:10.504Z,464.07
2022-12-17T04:00:55.737Z,431.53
2022-12-17T04:03:41.326Z,443.17
2022-12-17T04:06:27.048Z,441.73
2022-12-17T04:09:12.612Z,312.17
2022-12-17T04:11:57.737Z,589.83
2022-12-17T04:14:43.079Z,740.53
2022-12-17T04:17:28.313Z,799.53
2022-12-17T04:20:15.081Z,536.83
2022-12-17T04:23:01.887Z,536.33
2022-12-17T04:25:47.076Z,600.70
2022-12-17T04:28:32.345Z,259.93
2022-12-17T04:31:17.526Z,227.33
2022-12-17T04:34:02.740Z,478.80
2022-12-17T04:36:48.458Z,208.07
2022-12-17T04:39:33.592Z,485.23
2022-12-17T04:42:19.003Z,234.03
2022-12-17T04:45:04.496Z,373.03
2022-12-17T04:47:49.956Z,284.77
2022-12-17T04:50:35.984Z,321.93
2022-12-17T04:53:21.148Z,313.50
2022-12-17T04:56:06.946Z,371.50
2022-12-17T04:58:52.403Z,338.47
2022-12-17T05:01:37.823Z,318.77
2022-12-17T05:04:23.387Z,236.40
2022-12-17T05:07:08.569Z,228.97
2022-12-17T05:09:53.890Z,284.97
2022-12-17T05:12:39.093Z,410.87
2022-12-17T05:15:24.504Z,319.90
2022-12-17T05:18:09.588Z,214.83
2022-12-17T05:20:54.976Z,244.23
2022-12-17T05:23:40.317Z,261.20
2022-12-17T05:26:28.621Z,159.83
2022-12-17T05:29:16.108Z,167.33
2022-12-17T05:32:02.038Z,169.87
2022-12-17T05:34:47.153Z,183.27
2022-12-17T05:37:32.663Z,159.10
2022-12-17T05:40:17.919Z,199.77
2022-12-17T05:43:06.186Z,176.83
2022-12-17T05:45:51.766Z,205.03
2022-12-17T05:48:37.383Z,199.57
2022-12-17T05:51:23.220Z,165.10
2022-12-17T05:54:08.526Z,165.90
2022-12-17T05:56:54.252Z,153.40
2022-12-17T05:59:40.119Z,192.67
2022-12-17T06:02:26.294Z,215.27
2022-12-17T06:05:13.763Z,135.20
2022-12-17T06:08:06.805Z,214.63
2022-12-17T06:10:52.389Z,128.13
2022-12-17T06:13:38.053Z,203.53
2022-12-17T06:16:23.767Z,213.37
2022-12-17T06:19:08.956Z,190.07
2022-12-17T06:21:54.347Z,187.57
2022-12-17T06:24:45.550Z,134.37
2022-12-17T06:27:31.744Z,154.37
2022-12-17T06:30:18.795Z,139.30
2022-12-17T06:33:10.900Z,134.10
2022-12-17T06:35:58.846Z,138.67
2022-12-17T06:38:44.547Z,138.73
2022-12-17T06:41:30.157Z,123.00
2022-12-17T06:44:15.338Z,121.57
2022-12-17T06:47:01.071Z,175.87
2022-12-17T06:49:46.571Z,220.93
2022-12-17T06:52:32.214Z,120.47
2022-12-17T06:55:17.513Z,119.73
2022-12-17T06:58:03.308Z,119.90
2022-12-17T07:00:49.492Z,141.70
2022-12-17T07:03:35.043Z,102.47
2022-12-17T07:06:20.755Z,188.83
2022-12-17T07:09:06.112Z,99.70
2022-12-17T07:11:51.343Z,94.57
2022-12-17T07:14:37.029Z,89.17
2022-12-17T07:17:22.625Z,156.70
2022-12-17T07:20:09.527Z,137.33
2022-12-17T07:22:55.872Z,122.90
2022-12-17T07:25:46.056Z,257.83
2022-12-17T07:28:32.022Z,113.83
2022-12-17T07:31:17.250Z,151.23
2022-12-17T07:34:02.400Z,115.73
2022-12-17T07:36:47.976Z,145.93
2022-12-17T07:39:34.785Z,184.17
2022-12-17T07:42:20.445Z,150.87
2022-12-17T07:45:06.519Z,144.97
2022-12-17T07:47:53.332Z,217.70
2022-12-17T07:50:38.662Z,191.80
2022-12-17T07:53:24.248Z,131.83
2022-12-17T07:56:10.042Z,315.73
2022-12-17T07:58:59.016Z,198.07
2022-12-17T08:01:44.723Z,231.77
2022-12-17T08:04:30.330Z,245.57
2022-12-17T08:07:16.088Z,238.70
2022-12-17T08:10:01.482Z,131.33
2022-12-17T08:13:15.722Z,131.40
2022-12-17T08:16:04.723Z,142.03
2022-12-17T08:18:53.089Z,200.23
2022-12-17T08:21:41.605Z,247.83
2022-12-17T08:24:27.160Z,139.83
2022-12-17T08:27:15.954Z,134.37
2022-12-17T08:30:01.283Z,130.10
2022-12-17T08:32:50.078Z,137.07
2022-12-17T08:35:35.407Z,137.10
2022-12-17T08:38:21.919Z,182.30
2022-12-17T08:41:07.682Z,189.93
2022-12-17T08:43:53.062Z,110.23
2022-12-17T08:46:38.707Z,187.07
2022-12-17T08:49:24.287Z,164.03
2022-12-17T08:52:10.027Z,148.43
2022-12-17T08:54:55.726Z,136.37
2022-12-17T08:57:41.197Z,113.10
2022-12-17T09:00:27.069Z,124.40
2022-12-17T09:03:12.733Z,123.83
2022-12-17T09:05:58.106Z,120.17
2022-12-17T09:08:43.719Z,115.53
2022-12-17T09:11:29.188Z,116.67
2022-12-17T09:14:15.191Z,115.70
2022-12-17T09:17:00.996Z,107.73
2022-12-17T09:19:47.403Z,118.80
2022-12-17T09:22:33.162Z,102.20
2022-12-17T09:25:18.575Z,98.83
2022-12-17T09:28:04.116Z,102.30
2022-12-17T09:30:50.896Z,93.23
2022-12-17T09:33:37.004Z,101.60
2022-12-17T09:36:23.069Z,111.90
2022-12-17T09:39:08.486Z,105.27
2022-12-17T09:42:15.031Z,105.00
2022-12-17T09:45:04.880Z,103.20
2022-12-17T09:48:32.074Z,93.27
2022-12-17T09:51:24.467Z,91.00
2022-12-17T09:54:39.867Z,102.07
2022-12-17T09:57:30.791Z,97.93
2022-12-17T10:00:19.963Z,92.10
2022-12-17T10:03:15.110Z,109.80
2022-12-17T10:06:06.836Z,101.10
2022-12-17T10:09:01.309Z,117.33
2022-12-17T10:11:46.626Z,117.17
2022-12-17T10:14:31.989Z,125.23
2022-12-17T10:17:21.200Z,128.03
2022-12-17T10:20:31.250Z,112.10
2022-12-17T10:23:32.292Z,113.67
2022-12-17T10:26:22.434Z,107.67
2022-12-17T10:29:20.591Z,107.57
2022-12-17T10:32:21.765Z,100.60
2022-12-17T10:35:16.034Z,105.63
2022-12-17T10:38:09.965Z,103.07
2022-12-17T10:40:55.387Z,104.77
2022-12-17T10:43:42.437Z,93.20
2022-12-17T10:46:29.131Z,95.67
2022-12-17T10:49:20.914Z,100.17
2022-12-17T10:52:25.329Z,109.27
2022-12-17T10:55:31.519Z,130.90
2022-12-17T10:58:30.357Z,110.80
2022-12-17T11:01:37.652Z,97.97
2022-12-17T11:04:26.920Z,113.37
2022-12-17T11:07:40.364Z,117.90
2022-12-17T11:10:30.636Z,104.57
2022-12-17T11:13:46.913Z,104.50
2022-12-17T11:16:42.308Z,110.93
2022-12-17T11:19:36.582Z,101.90
2022-12-17T11:22:32.266Z,101.30
2022-12-17T11:25:31.372Z,105.13
2022-12-17T11:28:23.982Z,103.13
2022-12-17T11:31:19.769Z,91.63
2022-12-17T11:34:23.980Z,87.00
2022-12-17T11:37:11.672Z,102.80
2022-12-17T11:40:42.744Z,105.43
2022-12-17T11:44:00.336Z,97.83
2022-12-17T11:47:18.631Z,97.00
2022-12-17T11:50:34.711Z,107.57
2022-12-17T11:53:38.943Z,89.83
2022-12-17T11:56:47.780Z,89.87
2022-12-17T11:59:52.498Z,92.23
2022-12-17T12:03:04.818Z,106.07
2022-12-17T12:05:57.704Z,112.47
2022-12-17T12:08:55.786Z,98.50
2022-12-17T12:11:48.555Z,102.90
2022-12-17T12:14:59.464Z,98.83
2022-12-17T12:17:57.867Z,91.60
2022-12-17T12:21:06.652Z,92.67
2022-12-17T12:24:06.309Z,96.97
2022-12-17T12:27:11.110Z,105.63
2022-12-17T12:30:16.671Z,97.33
2022-12-17T12:33:10.109Z,106.70
2022-12-17T12:36:03.421Z,94.30
2022-12-17T12:38:53.934Z,89.87
2022-12-17T12:41:53.946Z,88.37
2022-12-17T12:44:49.920Z,85.20
2022-12-17T12:47:50.471Z,97.67
2022-12-17T12:51:00.309Z,98.87
2022-12-17T12:53:57.494Z,93.87
2022-12-17T12:56:43.055Z,89.93
2022-12-17T12:59:35.503Z,103.27
2022-12-17T13:02:21.189Z,107.33
2022-12-17T13:05:32.304Z,102.73
2022-12-17T13:08:19.577Z,103.73
2022-12-17T13:11:36.624Z,99.83
2022-12-17T13:14:28.455Z,128.90
2022-12-17T13:17:21.906Z,98.23
2022-12-17T13:20:30.421Z,101.27
2022-12-17T13:23:26.135Z,94.33
2022-12-17T13:26:33.344Z,86.60
2022-12-17T13:29:29.382Z,84.03
2022-12-17T13:32:27.629Z,82.70
2022-12-17T13:35:57.573Z,77.83
2022-12-17T13:39:06.893Z,87.40
2022-12-17T13:41:56.112Z,86.93
2022-12-17T13:44:46.309Z,81.23
2022-12-17T13:47:35.504Z,82.07
2022-12-17T13:50:36.253Z,86.43
2022-12-17T13:53:22.349Z,82.47
2022-12-17T13:56:10.424Z,90.67
2022-12-17T13:59:00.932Z,97.77
2022-12-17T14:01:51.404Z,93.93
2022-12-17T14:04:37.033Z,93.73
2022-12-17T14:07:23.263Z,91.67
2022-12-17T14:10:17.309Z,98.63
2022-12-17T14:13:08.783Z,106.40
2022-12-17T14:16:03.469Z,98.83
2022-12-17T14:30:11.416Z,109.27
2022-12-17T14:40:31.562Z,112.30
2022-12-17T14:43:35.681Z,121.90
2022-12-17T14:46:26.394Z,105.20
2022-12-17T14:49:27.443Z,106.03
2022-12-17T14:52:15.290Z,101.27
2022-12-17T14:55:32.759Z,102.53
2022-12-17T14:58:22.001Z,95.60
2022-12-17T15:01:13.895Z,94.93
2022-12-17T15:04:03.099Z,105.23
2022-12-17T15:07:01.244Z,107.00
2022-12-17T15:09:46.757Z,119.90
2022-12-17T15:12:32.359Z,126.90
2022-12-17T15:15:18.034Z,127.53
2022-12-17T15:18:03.834Z,124.30
2022-12-17T15:20:49.540Z,128.20
2022-12-17T15:23:41.274Z,129.37
2022-12-17T15:26:27.134Z,133.67
2022-12-17T15:29:13.074Z,114.43
2022-12-17T15:31:58.970Z,127.47
2022-12-17T15:34:44.563Z,117.53
2022-12-17T15:37:30.081Z,104.60
2022-12-17T15:40:33.033Z,100.47
2022-12-17T15:43:25.203Z,106.50
2022-12-17T15:46:11.123Z,111.43
2022-12-17T15:48:58.086Z,107.73
2022-12-17T15:51:44.682Z,118.03
2022-12-17T15:54:30.606Z,115.27
2022-12-17T15:57:18.753Z,114.47
2022-12-17T16:00:04.836Z,119.90
2022-12-17T16:02:50.829Z,121.67
2022-12-17T16:05:36.684Z,105.83
2022-12-17T16:08:22.915Z,103.87
2022-12-17T16:11:11.021Z,111.20
2022-12-17T16:13:57.011Z,109.90
2022-12-17T16:16:42.689Z,111.43
2022-12-17T16:19:28.155Z,114.53
2022-12-17T16:22:16.762Z,117.70
2022-12-17T16:25:02.367Z,114.13
2022-12-17T16:27:49.124Z,114.43
2022-12-17T16:30:36.074Z,126.73
2022-12-17T16:33:21.565Z,132.80
2022-12-17T16:36:12.086Z,126.27
2022-12-17T16:38:59.573Z,114.50
2022-12-17T16:41:46.562Z,115.23
2022-12-17T16:44:33.251Z,108.10
2022-12-17T16:50:40.634Z,117.20
2022-12-17T16:53:31.332Z,114.70
2022-12-17T16:56:19.440Z,124.50
2022-12-17T16:59:10.691Z,112.77
2022-12-17T17:01:57.616Z,108.77
2022-12-17T17:04:44.803Z,102.33
2022-12-17T17:07:31.207Z,104.43
2022-12-17T17:10:18.491Z,109.13
2022-12-17T17:13:10.881Z,97.43
2022-12-17T17:15:59.210Z,107.77
2022-12-17T17:18:45.616Z,106.57
2022-12-17T17:21:37.972Z,107.57
2022-12-17T17:24:24.421Z,117.60
2022-12-17T17:27:10.562Z,114.00
2022-12-17T17:30:01.386Z,115.37
2022-12-17T17:32:49.810Z,123.93
2022-12-17T17:35:36.873Z,112.40
2022-12-17T17:38:23.693Z,105.43
2022-12-17T17:41:12.285Z,111.47
2022-12-17T17:44:09.524Z,105.47
2022-12-17T17:46:55.618Z,100.47
2022-12-17T17:49:41.361Z,110.20
2022-12-17T17:52:27.973Z,126.63
2022-12-17T17:55:14.117Z,102.07
2022-12-17T17:58:01.857Z,103.93
2022-12-17T18:00:47.875Z,107.47
2022-12-17T18:03:35.578Z,114.07
2022-12-17T18:06:20.938Z,124.83
2022-12-17T18:09:10.733Z,120.83
2022-12-17T18:11:56.165Z,116.53
2022-12-17T18:14:46.631Z,115.83
2022-12-17T18:17:41.354Z,113.63
2022-12-17T18:20:30.928Z,104.80
2022-12-17T18:23:16.450Z,103.70
2022-12-17T18:26:10.993Z,99.60
2022-12-17T18:28:58.716Z,105.83
2022-12-17T18:31:50.013Z,113.60
2022-12-17T18:34:37.395Z,102.73
2022-12-17T18:37:22.770Z,104.03
2022-12-17T18:40:11.801Z,107.13
2022-12-17T18:42:57.154Z,112.47
2022-12-17T18:45:45.235Z,110.80
2022-12-17T18:48:30.642Z,119.53
2022-12-17T18:51:18.082Z,110.17
2022-12-17T18:54:04.964Z,108.80
2022-12-17T18:57:06.807Z,118.17
2022-12-17T18:59:55.321Z,113.00
2022-12-17T19:02:40.757Z,119.33
2022-12-17T19:05:26.553Z,110.23
2022-12-17T19:08:12.255Z,113.60
2022-12-17T19:11:04.396Z,116.60
2022-12-17T19:13:52.452Z,103.90
2022-12-17T19:16:43.150Z,114.97
2022-12-17T19:19:28.817Z,125.33
2022-12-17T19:22:18.076Z,120.53
2022-12-17T19:25:03.967Z,135.53
2022-12-17T19:27:49.404Z,139.07
2022-12-17T19:30:34.753Z,131.60
2022-12-17T19:33:19.981Z,127.47
2022-12-17T19:36:08.804Z,123.90
2022-12-17T19:38:56.232Z,133.17
2022-12-17T19:41:43.561Z,136.70
2022-12-17T19:44:34.962Z,130.03
2022-12-17T19:47:28.753Z,119.10
2022-12-17T19:50:20.074Z,124.30
2022-12-17T19:53:05.372Z,120.50
2022-12-17T19:56:09.996Z,124.17
2022-12-17T19:59:01.317Z,121.27
2022-12-17T20:01:46.988Z,128.30
2022-12-17T20:04:35.675Z,136.27
2022-12-17T20:07:20.994Z,116.93
2022-12-17T20:10:06.964Z,117.23
2022-12-17T20:12:52.524Z,105.13
2022-12-17T20:15:44.243Z,130.20
2022-12-17T20:18:38.318Z,117.77
2022-12-17T20:21:30.236Z,118.37
2022-12-17T20:24:16.858Z,123.03
2022-12-17T20:27:03.058Z,132.80
2022-12-17T20:29:48.139Z,127.03
2022-12-17T20:32:33.896Z,121.40
2022-12-17T20:35:20.757Z,130.47
2022-12-17T20:38:09.346Z,144.23
2022-12-17T20:40:54.613Z,123.50
2022-12-17T20:43:40.468Z,134.57
2022-12-17T20:46:26.185Z,119.27
2022-12-17T20:49:13.192Z,116.00
2022-12-17T20:51:58.409Z,115.20
2022-12-17T20:54:44.154Z,128.07
2022-12-17T20:57:31.209Z,137.83
2022-12-17T21:00:16.902Z,124.07
2022-12-17T21:03:02.420Z,118.33
2022-12-17T21:05:47.828Z,122.13
2022-12-17T21:08:34.373Z,115.03
2022-12-17T21:11:25.170Z,119.50
2022-12-17T21:14:13.695Z,118.37
2022-12-17T21:16:58.965Z,123.80
2022-12-17T21:19:44.553Z,137.77
2022-12-17T21:22:30.094Z,125.13
2022-12-17T21:25:15.328Z,140.23
2022-12-17T21:28:00.472Z,129.13
2022-12-17T21:30:45.714Z,128.83
2022-12-17T21:33:32.046Z,147.30
2022-12-17T21:36:20.841Z,135.60
2022-12-17T21:39:09.584Z,148.87
2022-12-17T21:41:57.109Z,155.07
2022-12-17T21:44:42.578Z,132.97
2022-12-17T21:47:28.144Z,142.47
2022-12-17T21:50:13.588Z,134.97
2022-12-17T21:52:59.674Z,127.10
2022-12-17T21:55:45.040Z,146.80
2022-12-17T21:58:31.137Z,133.97
2022-12-17T22:01:19.719Z,134.33
2022-12-17T22:04:05.215Z,140.13
2022-12-17T22:06:54.860Z,132.10
2022-12-17T22:10:32.757Z,136.93
2022-12-17T22:12:59.423Z,131.70
2022-12-17T22:15:48.456Z,133.80
2022-12-17T22:18:33.990Z,133.57
2022-12-17T22:21:20.001Z,142.53
2022-12-17T22:24:08.465Z,135.63
2022-12-17T22:26:54.590Z,169.10
2022-12-17T22:29:41.728Z,134.60
2022-12-17T22:32:42.404Z,137.67
2022-12-17T22:37:00.024Z,140.40
2022-12-17T22:44:04.745Z,142.13
2022-12-17T22:44:34.527Z,143.70
2022-12-17T22:44:54.152Z,143.33
2022-12-17T22:47:41.390Z,144.13
2022-12-17T22:50:29.447Z,138.17
2022-12-17T22:53:28.492Z,141.97
2022-12-17T22:56:23.936Z,136.83
2022-12-17T22:59:19.369Z,136.10
2022-12-17T23:02:04.673Z,130.27
2022-12-17T23:04:50.318Z,139.33
2022-12-17T23:07:35.949Z,138.67
2022-12-17T23:10:22.192Z,133.77
2022-12-17T23:13:07.676Z,133.30
2022-12-17T23:15:56.064Z,130.47
2022-12-17T23:18:41.986Z,127.43
2022-12-17T23:21:28.145Z,130.70
2022-12-17T23:24:13.587Z,128.33
2022-12-17T23:26:59.389Z,121.70
2022-12-17T23:29:44.714Z,135.03
2022-12-17T23:32:30.031Z,136.33
2022-12-17T23:35:15.136Z,135.33
2022-12-17T23:38:00.535Z,134.47
2022-12-17T23:40:46.602Z,123.47
2022-12-17T23:44:05.334Z,125.30
2022-12-17T23:47:34.876Z,167.27
2022-12-17T23:50:26.299Z,136.83
2022-12-17T23:57:14.916Z,127.40
